Time;durP1;ratioP1;P1;durP2;ratioP2;P2;SDS_P1;SDS_P2;PMS_P1;PMS_P2;Temp;Humidity;BMP_temperature;BMP_pressure;BME280_temperature;BME280_humidity;BME280_pressure;Samples;Min_cycle;Max_cycle;Signal;HPM_P1;HPM_P2
2021/05/14 00:02:42;;;;;;;;;;;;;;;13.49;96.47;98845.52;2731662;87;20173;-67
2021/05/14 00:06:43;;;;;;;;;;;;;;;13.40;96.68;98852.73;2731776;86;20196;-67
2021/05/14 00:10:47;;;;;;;;;;;;;;;13.36;96.71;98843.92;2734073;87;20149;-67
2021/05/14 00:14:48;;;;;;;;;;;;;;;13.35;96.90;98846.27;2733810;87;20301;-68
2021/05/14 00:18:49;;;;;;;;;;;;;;;13.32;97.10;98849.30;2733943;87;20192;-67
2021/05/14 00:22:51;;;;;;;;;;;;;;;13.32;97.22;98853.30;2733897;86;20164;-68
2021/05/14 00:26:53;;;;;;;;;;;;;;;13.32;97.13;98853.30;2733962;87;20181;-67
2021/05/14 00:30:55;;;;;;;;;;;;;;;13.31;97.11;98852.98;2733895;87;20184;-66
2021/05/14 00:34:56;;;;;;;;;;;;;;;13.33;97.11;98849.63;2734295;87;20185;-67
2021/05/14 00:38:58;;;;;;;;;;;;;;;13.31;96.87;98850.31;2733844;87;20165;-67
2021/05/14 00:42:59;;;;;;;;;;;;;;;13.29;96.90;98847.31;2722769;87;20189;-68
2021/05/14 00:47:08;;;;;;;;;;;;;;;13.26;97.13;98848.17;2722914;86;20201;-67
2021/05/14 00:51:09;;;;;;;;;;;;;;;13.26;97.27;98857.52;2722709;87;20205;-67
2021/05/14 00:55:11;;;;;;;;;;;;;;;13.21;97.27;98858.08;2729729;86;20155;-67
2021/05/14 00:59:13;;;;;;;;;;;;;;;13.24;97.20;98853.70;2731003;86;20190;-68
2021/05/14 01:03:15;;;;;;;;;;;;;;;13.22;97.23;98855.73;2738168;86;21072;-67
2021/05/14 01:07:16;;;;;;;;;;;;;;;13.21;97.27;98857.23;2744809;86;20190;-67
2021/05/14 01:11:18;;;;;;;;;;;;;;;13.25;97.27;98863.38;2744791;86;20197;-67
2021/05/14 01:15:20;;;;;;;;;;;;;;;13.26;97.00;98859.70;2743001;86;20186;-66
2021/05/14 01:19:21;;;;;;;;;;;;;;;13.26;97.15;98857.52;2744798;86;20182;-67
2021/05/14 01:23:25;;;;;;;;;;;;;;;13.27;96.87;98860.54;2744669;86;20162;-67
2021/05/14 01:27:26;;;;;;;;;;;;;;;13.27;96.92;98857.87;2744970;85;20199;-67
2021/05/14 01:31:27;;;;;;;;;;;;;;;13.24;96.79;98848.36;2744781;86;20234;-67
2021/05/14 01:35:29;;;;;;;;;;;;;;;13.22;96.77;98857.06;2745104;86;20463;-68
2021/05/14 01:39:34;;;;;;;;;;;;;;;13.18;96.90;98855.77;2744980;86;20205;-67
2021/05/14 01:43:36;;;;;;;;;;;;;;;13.15;97.05;98856.09;2726972;86;20192;-67
2021/05/14 01:47:38;;;;;;;;;;;;;;;13.07;97.40;98854.83;2723166;87;20189;-67
2021/05/14 01:51:40;;;;;;;;;;;;;;;13.07;97.26;98860.16;2723048;87;20177;-67
2021/05/14 01:55:42;;;;;;;;;;;;;;;13.08;97.18;98852.48;2723047;87;20209;-67
2021/05/14 01:59:45;;;;;;;;;;;;;;;13.06;97.23;98853.98;2722825;87;20193;-67
2021/05/14 02:03:46;;;;;;;;;;;;;;;13.05;97.17;98857.66;2722887;87;20150;-67
2021/05/14 02:07:48;;;;;;;;;;;;;;;13.09;97.19;98858.14;2722860;87;20193;-67
2021/05/14 02:11:51;;;;;;;;;;;;;;;13.08;97.14;98856.00;2722802;87;20205;-68
2021/05/14 02:15:53;;;;;;;;;;;;;;;13.11;97.05;98850.30;2722807;87;20189;-67
2021/05/14 02:19:55;;;;;;;;;;;;;;;13.11;96.91;98858.30;2722935;87;20169;-67
2021/05/14 02:23:57;;;;;;;;;;;;;;;13.11;96.91;98857.46;2722753;87;20197;-67
2021/05/14 02:27:59;;;;;;;;;;;;;;;13.10;96.79;98858.47;2722793;87;20276;-67
2021/05/14 02:32:02;;;;;;;;;;;;;;;13.11;96.73;98860.13;2722759;87;20173;-66
2021/05/14 02:36:06;;;;;;;;;;;;;;;13.11;96.58;98863.64;2722858;87;20746;-67
2021/05/14 02:40:08;;;;;;;;;;;;;;;13.13;96.46;98872.80;2722770;87;20181;-67
2021/05/14 02:44:09;;;;;;;;;;;;;;;13.18;96.27;98866.44;2722915;87;20209;-68
2021/05/14 02:48:13;;;;;;;;;;;;;;;13.18;95.89;98867.78;2723041;87;20524;-67
2021/05/14 02:52:14;;;;;;;;;;;;;;;13.18;95.87;98873.12;2722819;87;20173;-67
2021/05/14 02:56:16;;;;;;;;;;;;;;;13.21;95.92;98875.43;2723113;86;20162;-67
2021/05/14 03:00:18;;;;;;;;;;;;;;;13.26;95.90;98870.38;2721381;86;20193;-65
2021/05/14 03:04:20;;;;;;;;;;;;;;;13.27;95.70;98872.03;2723028;87;20541;-66
2021/05/14 03:08:22;;;;;;;;;;;;;;;13.27;95.22;98873.89;2720688;86;20169;-66
2021/05/14 03:12:23;;;;;;;;;;;;;;;13.30;95.36;98882.88;2722795;87;20197;-68
2021/05/14 03:16:25;;;;;;;;;;;;;;;13.33;95.50;98888.34;2722963;87;20138;-65
2021/05/14 03:20:27;;;;;;;;;;;;;;;13.31;94.94;98885.88;2722757;87;20158;-65
2021/05/14 03:24:28;;;;;;;;;;;;;;;13.24;94.96;98887.08;2721077;86;20217;-64
2021/05/14 03:28:29;;;;;;;;;;;;;;;13.22;95.06;98890.92;2720201;87;20766;-65
2021/05/14 03:32:31;;;;;;;;;;;;;;;13.12;95.23;98897.34;2720136;87;20181;-65
2021/05/14 03:36:35;;;;;;;;;;;;;;;13.12;95.60;98901.84;2720527;87;20146;-65
2021/05/14 03:40:37;;;;;;;;;;;;;;;13.13;95.59;98903.50;2720575;87;20255;-64
2021/05/14 03:44:40;;;;;;;;;;;;;;;13.09;95.32;98911.05;2720449;87;20173;-64
2021/05/14 03:48:42;;;;;;;;;;;;;;;13.06;95.35;98909.22;2720468;87;20271;-63
2021/05/14 03:52:44;;;;;;;;;;;;;;;13.04;95.24;98916.06;2720293;87;20229;-65
2021/05/14 03:56:45;;;;;;;;;;;;;;;13.04;95.64;98919.25;2720612;87;20216;-64
2021/05/14 04:00:47;;;;;;;;;;;;;;;13.04;95.56;98904.57;2720936;87;20517;-65
2021/05/14 04:04:48;;;;;;;;;;;;;;;13.04;95.57;98913.91;2720670;87;20205;-63
2021/05/14 04:08:50;;;;;;;;;;;;;;;13.04;95.42;98923.25;2720816;87;20201;-64
2021/05/14 04:17:11;;;;;;;;;;;;;;;13.12;95.64;98923.20;2720305;86;20237;-63
2021/05/14 04:21:13;;;;;;;;;;;;;;;13.14;95.18;98931.86;2720160;87;20185;-65
2021/05/14 04:25:14;;;;;;;;;;;;;;;13.14;95.12;98929.19;2720354;87;20185;-64
2021/05/14 04:29:16;;;;;;;;;;;;;;;13.13;95.33;98924.86;2720529;87;20197;-63
2021/05/14 04:33:18;;;;;;;;;;;;;;;13.10;95.09;98920.72;2720538;87;20209;-64
2021/05/14 04:37:19;;;;;;;;;;;;;;;13.12;95.00;98931.20;2720877;86;20197;-63
2021/05/14 04:41:22;;;;;;;;;;;;;;;13.11;95.04;98933.05;2721123;86;20204;-64
2021/05/14 04:45:25;;;;;;;;;;;;;;;13.08;95.31;98931.23;2721356;87;20213;-65
2021/05/14 04:49:27;;;;;;;;;;;;;;;12.98;95.22;98924.29;2721739;87;20161;-64
2021/05/14 04:53:30;;;;;;;;;;;;;;;12.96;95.34;98935.62;2723027;87;20972;-63
2021/05/14 04:57:31;;;;;;;;;;;;;;;13.02;95.53;98935.95;2722932;87;20197;-63
2021/05/14 05:01:33;;;;;;;;;;;;;;;13.06;95.46;98930.58;2721141;87;20189;-63
2021/05/14 05:05:36;;;;;;;;;;;;;;;13.09;95.46;98942.23;2723022;87;20237;-63
2021/05/14 05:09:37;;;;;;;;;;;;;;;13.12;95.18;98940.55;2722929;87;20149;-64
2021/05/14 05:13:39;;;;;;;;;;;;;;;13.17;95.41;98944.88;2722995;87;20149;-65
2021/05/14 05:17:41;;;;;;;;;;;;;;;13.20;95.51;98948.53;2722873;87;20193;-63
2021/05/14 05:21:43;;;;;;;;;;;;;;;13.25;95.54;98951.49;2722994;87;20221;-65
2021/05/14 05:25:44;;;;;;;;;;;;;;;13.25;95.70;98952.83;2723116;87;20173;-64
2021/05/14 05:29:46;;;;;;;;;;;;;;;13.29;95.87;98957.33;2722943;87;20213;-63
2021/05/14 05:33:47;;;;;;;;;;;;;;;13.26;95.63;98962.50;2722142;86;20482;-63
2021/05/14 05:37:49;;;;;;;;;;;;;;;13.19;95.87;98960.22;2721050;87;20229;-63
2021/05/14 05:41:51;;;;;;;;;;;;;;;13.21;95.85;98968.88;2724330;86;20233;-63
2021/05/14 05:45:53;;;;;;;;;;;;;;;13.25;96.31;98975.52;2731621;87;20209;-66
2021/05/14 05:49:55;;;;;;;;;;;;;;;13.29;95.93;98976.02;2731443;87;20197;-64
2021/05/14 05:53:58;;;;;;;;;;;;;;;13.32;95.51;98980.16;2731388;87;20157;-64
2021/05/14 05:58:18;;;;;;;;;;;;;;;13.33;95.87;98978.66;2731572;87;20146;-63
2021/05/14 06:02:19;;;;;;;;;;;;;;;13.35;96.07;98973.13;2731387;87;20205;-62
2021/05/14 06:06:42;;;;;;;;;;;;;;;13.40;95.83;98975.59;2731443;87;20163;-65
2021/05/14 06:10:46;;;;;;;;;;;;;;;13.41;95.80;98985.27;2740820;86;20192;-64
2021/05/14 06:14:49;;;;;;;;;;;;;;;13.46;95.57;98978.59;2740760;86;20204;-64
2021/05/14 06:18:57;;;;;;;;;;;;;;;13.45;95.18;98986.28;2740713;86;20233;-63
2021/05/14 06:22:55;;;;;;;;;;;;;;;13.46;95.54;98986.61;2741222;84;20208;-64
2021/05/14 06:26:56;;;;;;;;;;;;;;;13.49;95.39;98991.10;2752231;85;20202;-63
2021/05/14 06:30:58;;;;;;;;;;;;;;;13.58;94.90;98991.06;2786237;85;20186;-65
2021/05/14 06:34:59;;;;;;;;;;;;;;;13.64;94.37;98999.70;2786297;84;20210;-63
2021/05/14 06:39:01;;;;;;;;;;;;;;;13.71;94.07;98996.63;2786538;84;20152;-63
2021/05/14 06:43:03;;;;;;;;;;;;;;;13.82;93.50;99000.23;2786624;85;20178;-64
2021/05/14 06:47:06;;;;;;;;;;;;;;;13.90;92.51;98999.34;2786694;84;20170;-64
2021/05/14 06:51:10;;;;;;;;;;;;;;;13.89;90.79;99010.20;2786505;84;20186;-65
2021/05/14 06:55:12;;;;;;;;;;;;;;;13.89;91.27;99007.05;2786421;84;20210;-63
2021/05/14 06:59:14;;;;;;;;;;;;;;;13.97;91.57;99012.31;2786630;84;20175;-63
2021/05/14 07:03:15;;;;;;;;;;;;;;;13.99;91.28;99009.47;2785871;84;20175;-64
2021/05/14 07:07:18;;;;;;;;;;;;;;;14.06;91.56;99009.06;2786280;85;20230;-65
2021/05/14 07:11:19;;;;;;;;;;;;;;;14.04;90.67;99021.79;2794006;83;20209;-63
2021/05/14 07:15:21;;;;;;;;;;;;;;;13.98;90.32;99031.88;2793317;85;20146;-65
2021/05/14 07:19:22;;;;;;;;;;;;;;;13.97;91.03;99028.88;2795801;85;20166;-64
2021/05/14 07:23:24;;;;;;;;;;;;;;;13.95;90.76;99038.89;2794678;83;20483;-64
2021/05/14 07:27:26;;;;;;;;;;;;;;;14.00;90.51;99043.22;2794936;83;20186;-63
2021/05/14 07:31:27;;;;;;;;;;;;;;;14.00;90.20;99043.22;2793597;83;20158;-63
2021/05/14 07:35:28;;;;;;;;;;;;;;;14.03;90.51;99052.21;2794375;83;20571;-63
2021/05/14 07:39:30;;;;;;;;;;;;;;;13.98;90.13;99054.08;2795780;83;20190;-66
2021/05/14 07:43:31;;;;;;;;;;;;;;;14.07;90.26;99056.19;2795132;83;20167;-64
2021/05/14 07:47:32;;;;;;;;;;;;;;;14.04;89.64;99061.05;2795231;83;20166;-64
2021/05/14 07:51:34;;;;;;;;;;;;;;;13.91;89.66;99065.16;2794955;83;20198;-64
2021/05/14 07:55:35;;;;;;;;;;;;;;;13.85;90.23;99064.03;2792780;83;20213;-63
2021/05/14 07:59:36;;;;;;;;;;;;;;;13.83;90.27;99067.88;2794206;83;20491;-64
2021/05/14 08:03:38;;;;;;;;;;;;;;;13.78;89.79;99057.73;2794547;83;20171;-64
2021/05/14 08:07:39;;;;;;;;;;;;;;;13.80;90.77;99067.74;2802784;83;20226;-65
2021/05/14 08:11:41;;;;;;;;;;;;;;;13.83;90.77;99063.86;2777138;84;20206;-64
2021/05/14 08:15:45;;;;;;;;;;;;;;;13.83;90.73;99071.39;2776783;84;20214;-65
2021/05/14 08:19:47;;;;;;;;;;;;;;;13.84;90.61;99077.06;2777497;84;20494;-64
2021/05/14 08:23:49;;;;;;;;;;;;;;;13.89;89.93;99071.69;2777625;84;20194;-63
2021/05/14 08:27:50;;;;;;;;;;;;;;;13.98;89.96;99074.13;2777560;84;20194;-63
2021/05/14 08:31:52;;;;;;;;;;;;;;;14.06;89.86;99068.41;2778542;85;20189;-63
2021/05/14 08:35:53;;;;;;;;;;;;;;;14.09;88.87;99072.06;2776177;84;20550;-62
2021/05/14 08:39:54;;;;;;;;;;;;;;;14.12;89.11;99082.39;2777534;84;20151;-63
2021/05/14 08:43:56;;;;;;;;;;;;;;;14.14;88.98;99082.52;2776863;84;20206;-66
2021/05/14 08:47:59;;;;;;;;;;;;;;;14.14;88.75;99091.06;2777808;84;20170;-63
2021/05/14 08:52:03;;;;;;;;;;;;;;;14.16;88.85;99094.39;2777542;84;20222;-63
2021/05/14 08:56:04;;;;;;;;;;;;;;;14.18;88.87;99100.91;2752735;85;20147;-66
2021/05/14 09:00:08;;;;;;;;;;;;;;;14.19;88.66;99102.05;2777492;84;20175;-63
2021/05/14 09:04:13;;;;;;;;;;;;;;;14.13;89.16;99102.25;2778018;84;20563;-64
2021/05/14 09:08:31;;;;;;;;;;;;;;;14.14;88.52;99106.59;2777143;85;20182;-64
2021/05/14 09:12:37;;;;;;;;;;;;;;;14.08;88.21;99107.31;2776342;84;20186;-63
2021/05/14 09:16:43;;;;;;;;;;;;;;;13.97;88.37;99105.06;2773807;84;20198;-63
2021/05/14 09:20:58;;;;;;;;;;;;;;;13.92;88.23;99114.94;2769014;84;20198;-63
2021/05/14 09:25:06;;;;;;;;;;;;;;;13.90;87.88;99108.09;2774533;84;20162;-65
2021/05/14 09:29:06;;;;;;;;;;;;;;;13.94;88.48;99119.61;2769595;84;20154;-63
2021/05/14 09:33:09;;;;;;;;;;;;;;;13.91;86.73;99107.09;2774186;84;20194;-65
2021/05/14 09:37:15;;;;;;;;;;;;;;;13.83;87.21;99128.86;2751132;84;20195;-64
2021/05/14 09:41:28;;;;;;;;;;;;;;;13.72;86.78;99125.23;2773639;84;20178;-63
2021/05/14 09:45:29;;;;;;;;;;;;;;;13.73;87.40;99134.91;2774915;84;20191;-63
2021/05/14 09:49:35;;;;;;;;;;;;;;;13.83;87.29;99138.70;2773634;84;20163;-64
2021/05/14 09:53:36;;;;;;;;;;;;;;;13.94;87.21;99142.33;2774051;84;20213;-64
2021/05/14 09:57:41;;;;;;;;;;;;;;;14.09;86.60;99140.25;2775456;85;20553;-64
2021/05/14 10:01:41;;;;;;;;;;;;;;;14.33;87.01;99143.75;2775846;83;20159;-63
2021/05/14 10:05:48;;;;;;;;;;;;;;;14.42;86.16;99148.87;2775266;85;20202;-65
2021/05/14 10:09:52;;;;;;;;;;;;;;;14.53;86.08;99152.97;2775084;84;21037;-63
2021/05/14 10:13:53;;;;;;;;;;;;;;;14.65;85.26;99139.98;2756511;84;20586;-63
2021/05/14 10:17:55;;;;;;;;;;;;;;;14.61;84.78;99146.72;2774828;84;20163;-64
2021/05/14 10:21:57;;;;;;;;;;;;;;;14.58;84.90;99151.09;2773643;84;20147;-64
2021/05/14 10:26:07;;;;;;;;;;;;;;;14.42;84.49;99150.20;2775023;84;20170;-63
2021/05/14 10:30:09;;;;;;;;;;;;;;;14.28;84.73;99157.66;2767969;84;20182;-64
2021/05/14 10:34:13;;;;;;;;;;;;;;;14.19;84.98;99156.06;2775274;83;20175;-66
2021/05/14 10:38:15;;;;;;;;;;;;;;;14.21;85.56;99148.69;2766250;83;20213;-65
2021/05/14 10:42:19;;;;;;;;;;;;;;;14.23;85.72;99165.39;2744622;84;20162;-64
2021/05/14 10:46:23;;;;;;;;;;;;;;;14.26;84.71;99161.86;2774590;84;20143;-64
2021/05/14 10:50:43;;;;;;;;;;;;;;;14.27;84.98;99166.69;2768022;84;20175;-64
2021/05/14 10:54:48;;;;;;;;;;;;;;;14.26;85.30;99171.72;2772575;85;20507;-64
2021/05/14 10:59:06;;;;;;;;;;;;;;;14.24;84.33;99160.36;2774803;84;20206;-64
2021/05/14 11:03:16;;;;;;;;;;;;;;;14.22;83.51;99167.73;2774266;84;20179;-63
2021/05/14 11:07:39;;;;;;;;;;;;;;;14.49;83.62;99177.57;2774971;85;20175;-64
2021/05/14 11:12:01;;;;;;;;;;;;;;;14.79;83.83;99191.10;2792191;83;20166;-65
2021/05/14 11:16:40;;;;;;;;;;;;;;;14.75;81.10;99176.42;2791868;83;20251;-65
2021/05/14 11:20:47;;;;;;;;;;;;;;;14.77;81.32;99191.80;2790896;85;20166;-63
2021/05/14 11:24:50;;;;;;;;;;;;;;;14.68;80.09;99191.81;2793388;83;20162;-64
2021/05/14 11:28:52;;;;;;;;;;;;;;;14.76;81.33;99194.14;2793809;83;20158;-67
2021/05/14 11:32:54;;;;;;;;;;;;;;;14.89;82.50;99197.02;2795322;83;20178;-66
2021/05/14 11:36:56;;;;;;;;;;;;;;;14.82;79.92;99205.46;2794798;83;20178;-65
2021/05/14 11:40:57;;;;;;;;;;;;;;;14.90;81.37;99189.31;2795802;83;20241;-66
2021/05/14 11:45:01;;;;;;;;;;;;;;;15.04;81.11;99210.96;2793478;84;20190;-64
2021/05/14 11:49:05;;;;;;;;;;;;;;;15.04;80.96;99207.79;2793553;85;20239;-63
2021/05/14 11:53:08;;;;;;;;;;;;;;;15.06;81.92;99210.27;2792047;83;20179;-66
2021/05/14 11:57:10;;;;;;;;;;;;;;;14.94;80.10;99217.91;2795321;83;20179;-65
2021/05/14 12:01:12;;;;;;;;;;;;;;;14.87;80.67;99207.61;2795031;83;20198;-64
2021/05/14 12:05:15;;;;;;;;;;;;;;;14.81;81.65;99219.34;2796197;83;20183;-66
2021/05/14 12:09:17;;;;;;;;;;;;;;;14.82;80.87;99223.67;2789667;83;20167;-65
2021/05/14 12:13:21;;;;;;;;;;;;;;;14.80;80.31;99227.05;2768047;85;20151;-66
2021/05/14 12:17:22;;;;;;;;;;;;;;;14.81;79.91;99234.06;2772033;85;20175;-64
2021/05/14 12:21:32;;;;;;;;;;;;;;;14.78;80.06;99226.39;2770404;85;20178;-66
2021/05/14 12:25:53;;;;;;;;;;;;;;;14.62;80.15;99231.34;2771623;85;20558;-65
2021/05/14 12:30:00;;;;;;;;;;;;;;;14.64;80.21;99226.64;2759046;85;20724;-64
2021/05/14 12:34:10;;;;;;;;;;;;;;;14.96;80.14;99227.92;2761265;85;20215;-65
2021/05/14 12:38:12;;;;;;;;;;;;;;;15.14;78.53;99227.62;2761109;85;20178;-64
2021/05/14 12:42:28;;;;;;;;;;;;;;;15.15;79.27;99240.00;2767737;85;20143;-65
2021/05/14 12:46:29;;;;;;;;;;;;;;;15.12;80.38;99242.52;2772876;85;20159;-64
2021/05/14 12:50:31;;;;;;;;;;;;;;;15.10;80.72;99243.21;2773675;85;20226;-65
2021/05/14 12:54:34;;;;;;;;;;;;;;;15.08;80.27;99242.56;2774356;85;20187;-64
2021/05/14 12:58:35;;;;;;;;;;;;;;;15.22;81.21;99246.77;2774240;85;20162;-64
2021/05/14 13:02:37;;;;;;;;;;;;;;;15.33;79.54;99255.72;2774999;85;20186;-64
2021/05/14 13:06:39;;;;;;;;;;;;;;;15.39;78.74;99262.20;2760795;85;20228;-60
2021/05/14 13:10:47;;;;;;;;;;;;;;;15.50;78.70;99252.36;2776579;85;20585;-59
2021/05/14 13:14:51;;;;;;;;;;;;;;;15.56;77.94;99262.37;2803048;83;20210;-59
2021/05/14 13:18:53;;;;;;;;;;;;;;;15.72;78.74;99259.16;2803185;83;20154;-61
2021/05/14 13:22:55;;;;;;;;;;;;;;;15.85;79.61;99263.91;2771738;83;20174;-61
2021/05/14 13:26:57;;;;;;;;;;;;;;;15.96;78.51;99263.97;2796315;83;20158;-62
2021/05/14 13:30:59;;;;;;;;;;;;;;;15.99;77.09;99264.41;2796964;83;20185;-61
2021/05/14 13:35:02;;;;;;;;;;;;;;;15.98;77.35;99260.06;2801277;83;20507;-60
2021/05/14 13:39:04;;;;;;;;;;;;;;;16.05;77.21;99264.19;2802020;83;20178;-60
2021/05/14 13:43:06;;;;;;;;;;;;;;;16.09;77.57;99263.31;2802941;83;20215;-60
2021/05/14 13:47:09;;;;;;;;;;;;;;;16.11;77.50;99263.95;2803959;83;20158;-61
2021/05/14 13:51:10;;;;;;;;;;;;;;;16.19;77.20;99261.15;2803201;83;20194;-59
2021/05/14 13:55:12;;;;;;;;;;;;;;;16.19;75.98;99263.83;2802634;83;20189;-60
2021/05/14 13:59:13;;;;;;;;;;;;;;;16.16;76.93;99263.39;2803301;83;20670;-60
2021/05/14 14:03:15;;;;;;;;;;;;;;;16.11;75.88;99266.63;2803566;83;20182;-59
2021/05/14 14:07:16;;;;;;;;;;;;;;;16.07;77.04;99272.88;2803801;85;20297;-59
2021/05/14 14:11:17;;;;;;;;;;;;;;;16.10;76.37;99275.17;2801985;85;20157;-59
2021/05/14 14:15:19;;;;;;;;;;;;;;;16.03;75.45;99278.81;2804124;85;20174;-60
2021/05/14 14:19:21;;;;;;;;;;;;;;;16.02;75.53;99278.50;2804455;85;20206;-60
2021/05/14 14:23:22;;;;;;;;;;;;;;;16.01;76.56;99273.62;2805189;85;20206;-60
2021/05/14 14:27:27;;;;;;;;;;;;;;;16.17;75.99;99275.27;2804468;83;20206;-60
2021/05/14 14:31:28;;;;;;;;;;;;;;;16.31;75.93;99276.28;2802935;83;20586;-60
2021/05/14 14:35:29;;;;;;;;;;;;;;;16.34;75.31;99270.53;2803607;83;20166;-61
2021/05/14 14:39:30;;;;;;;;;;;;;;;16.30;75.34;99279.95;2803949;83;20182;-61
2021/05/14 14:43:32;;;;;;;;;;;;;;;16.28;75.36;99273.95;2804437;83;20170;-61
2021/05/14 14:47:34;;;;;;;;;;;;;;;16.18;74.21;99271.56;2802727;83;20177;-60
2021/05/14 14:51:36;;;;;;;;;;;;;;;16.11;75.11;99280.89;2801877;83;20561;-60
2021/05/14 14:55:43;;;;;;;;;;;;;;;16.24;75.91;99276.69;2803131;83;20174;-62
2021/05/14 14:59:45;;;;;;;;;;;;;;;16.36;73.68;99281.06;2804808;85;20142;-61
2021/05/14 15:03:46;;;;;;;;;;;;;;;16.35;74.42;99286.95;2803675;85;20161;-60
2021/05/14 15:07:48;;;;;;;;;;;;;;;16.42;73.95;99278.46;2776297;85;20205;-61
2021/05/14 15:11:50;;;;;;;;;;;;;;;16.49;74.13;99283.06;2797704;84;20186;-60
2021/05/14 15:15:52;;;;;;;;;;;;;;;16.56;73.82;99274.59;2794018;83;20167;-61
2021/05/14 15:19:53;;;;;;;;;;;;;;;16.60;73.81;99283.92;2794890;83;20174;-61
2021/05/14 15:23:54;;;;;;;;;;;;;;;16.71;73.53;99277.22;2793489;85;20198;-61
2021/05/14 15:27:56;;;;;;;;;;;;;;;16.73;73.04;99276.52;2795249;83;20230;-61
2021/05/14 15:32:06;;;;;;;;;;;;;;;16.76;72.96;99273.97;2794464;83;20665;-62
2021/05/14 15:36:08;;;;;;;;;;;;;;;16.81;72.61;99274.22;2794382;83;20179;-62
2021/05/14 15:40:13;;;;;;;;;;;;;;;16.83;72.00;99274.36;2793543;83;20182;-63
2021/05/14 15:44:14;;;;;;;;;;;;;;;16.85;69.57;99274.16;2793956;85;20186;-64
2021/05/14 15:48:16;;;;;;;;;;;;;;;16.66;70.60;99275.09;2793545;83;20178;-64
2021/05/14 15:52:18;;;;;;;;;;;;;;;16.59;71.14;99280.92;2794883;83;20155;-64
2021/05/14 15:56:19;;;;;;;;;;;;;;;16.61;72.27;99285.59;2794326;83;20190;-64
2021/05/14 16:00:22;;;;;;;;;;;;;;;16.68;72.30;99288.34;2795029;85;20233;-63
2021/05/14 16:04:23;;;;;;;;;;;;;;;16.78;71.39;99288.85;2795249;83;20217;-63
2021/05/14 16:08:25;;;;;;;;;;;;;;;16.80;71.86;99284.15;2795358;83;20242;-63
2021/05/14 16:12:26;;;;;;;;;;;;;;;16.84;71.95;99280.05;2782959;83;20539;-63
2021/05/14 16:16:33;;;;;;;;;;;;;;;16.84;71.03;99281.89;2776862;84;20183;-64
2021/05/14 16:24:52;;;;;;;;;;;;;;;16.76;71.85;99280.16;2776663;84;20179;-62
2021/05/14 16:28:54;;;;;;;;;;;;;;;16.72;71.42;99273.52;2765605;84;20210;-62
2021/05/14 16:32:55;;;;;;;;;;;;;;;16.67;72.36;99276.77;2778642;84;20198;-62
2021/05/14 16:36:56;;;;;;;;;;;;;;;16.72;72.84;99276.72;2780142;85;20515;-61
2021/05/14 16:40:58;;;;;;;;;;;;;;;16.81;72.74;99272.88;2779260;84;20190;-61
2021/05/14 16:45:05;;;;;;;;;;;;;;;16.91;72.89;99281.95;2778811;84;20191;-62
2021/05/14 16:49:07;;;;;;;;;;;;;;;16.99;73.89;99283.19;2779442;85;20171;-62
2021/05/14 16:53:09;;;;;;;;;;;;;;;17.10;73.34;99276.50;2781343;85;20183;-60
2021/05/14 16:57:10;;;;;;;;;;;;;;;17.15;73.32;99284.80;2780016;84;20166;-61
2021/05/14 17:01:12;;;;;;;;;;;;;;;17.15;72.92;99284.80;2771304;85;20202;-61
2021/05/14 17:05:14;;;;;;;;;;;;;;;17.06;73.43;99292.16;2778920;85;20175;-61
2021/05/14 17:09:17;;;;;;;;;;;;;;;16.96;73.57;99284.39;2781159;85;20182;-61
2021/05/14 17:13:18;;;;;;;;;;;;;;;16.86;73.72;99289.23;2778436;85;20183;-61
2021/05/14 17:17:20;;;;;;;;;;;;;;;16.74;73.55;99288.10;2777894;84;20476;-61
2021/05/14 17:21:21;;;;;;;;;;;;;;;16.60;72.10;99293.31;2777983;85;20226;-61
2021/05/14 17:25:24;;;;;;;;;;;;;;;16.44;70.04;99297.56;2777775;84;20540;-60
2021/05/14 17:29:26;;;;;;;;;;;;;;;16.26;69.69;99307.70;2775415;84;20235;-60
2021/05/14 17:33:27;;;;;;;;;;;;;;;16.12;70.15;99301.83;2773719;86;20571;-61
2021/05/14 17:37:29;;;;;;;;;;;;;;;16.00;70.18;99312.20;2774145;84;20211;-62
2021/05/14 17:41:30;;;;;;;;;;;;;;;15.91;70.71;99310.61;2775038;84;20139;-63
2021/05/14 17:45:33;;;;;;;;;;;;;;;15.79;70.77;99315.08;2772703;84;20217;-63
2021/05/14 17:49:34;;;;;;;;;;;;;;;15.73;71.13;99314.97;2774858;84;20202;-62
2021/05/14 17:53:38;;;;;;;;;;;;;;;15.61;71.68;99309.23;2759661;84;20170;-64
2021/05/14 17:57:39;;;;;;;;;;;;;;;15.48;71.48;99312.53;2771670;84;20146;-63
2021/05/14 18:01:41;;;;;;;;;;;;;;;15.35;71.83;99309.14;2769071;85;20174;-62
2021/05/14 18:05:45;;;;;;;;;;;;;;;15.28;72.12;99310.36;2773787;85;20185;-62
2021/05/14 18:09:52;;;;;;;;;;;;;;;15.24;72.22;99317.92;2768640;84;20194;-63
2021/05/14 18:13:54;;;;;;;;;;;;;;;15.22;72.61;99322.63;2764646;84;20198;-62
2021/05/14 18:17:59;;;;;;;;;;;;;;;15.20;73.45;99323.31;2751142;85;20190;-61
2021/05/14 18:21:58;;;;;;;;;;;;;;;15.22;73.47;99339.19;2756470;84;20170;-62
2021/05/14 18:26:00;;;;;;;;;;;;;;;15.16;73.58;99331.88;2771360;84;20227;-63
2021/05/14 18:30:04;;;;;;;;;;;;;;;15.12;73.84;99341.62;2766736;84;20151;-60
2021/05/14 18:34:09;;;;;;;;;;;;;;;15.07;74.99;99336.47;2774962;84;20159;-62
2021/05/14 18:38:09;;;;;;;;;;;;;;;15.04;75.48;99338.16;2772334;84;20625;-62
2021/05/14 18:42:11;;;;;;;;;;;;;;;15.02;76.35;99345.55;2766820;84;20166;-61
2021/05/14 18:46:13;;;;;;;;;;;;;;;15.01;76.71;99342.55;2760421;84;20151;-61
2021/05/14 18:50:17;;;;;;;;;;;;;;;14.99;76.12;99344.89;2776430;85;23340;-61
2021/05/14 18:54:21;;;;;;;;;;;;;;;14.93;75.94;99354.95;2776242;85;20218;-61
2021/05/14 18:58:28;;;;;;;;;;;;;;;14.81;76.08;99358.55;2776699;84;20179;-61
2021/05/14 19:02:32;;;;;;;;;;;;;;;14.67;76.96;99362.78;2777208;84;20151;-61
2021/05/14 19:06:33;;;;;;;;;;;;;;;14.58;77.15;99366.52;2777153;84;20134;-61
2021/05/14 19:10:35;;;;;;;;;;;;;;;14.53;77.50;99373.72;2776709;84;20491;-60
2021/05/14 19:14:36;;;;;;;;;;;;;;;14.45;77.68;99373.77;2795756;83;20205;-61
2021/05/14 19:18:38;;;;;;;;;;;;;;;14.42;77.95;99377.61;2794789;83;20326;-61
2021/05/14 19:23:03;;;;;;;;;;;;;;;14.43;78.14;99379.28;2795257;84;20142;-61
2021/05/14 19:48:25;;;;;;;;;;;;;;;14.60;79.32;99393.09;2795122;83;20146;-60
2021/05/14 19:52:26;;;;;;;;;;;;;;;14.66;79.25;99402.59;2794860;83;20186;-61
2021/05/14 19:56:29;;;;;;;;;;;;;;;14.64;79.28;99404.62;2795039;83;20162;-62
2021/05/14 20:00:31;;;;;;;;;;;;;;;14.54;79.45;99410.17;2793608;83;20222;-61
2021/05/14 20:04:33;;;;;;;;;;;;;;;14.47;79.39;99417.73;2793891;83;20163;-63
2021/05/14 20:08:36;;;;;;;;;;;;;;;14.38;79.37;99419.11;2795073;85;20170;-62
2021/05/14 20:12:37;;;;;;;;;;;;;;;14.28;79.25;99425.98;2789262;85;20166;-61
2021/05/14 20:16:39;;;;;;;;;;;;;;;14.24;79.22;99426.49;2778528;84;20167;-61
2021/05/14 20:20:41;;;;;;;;;;;;;;;14.11;78.80;99429.19;2777686;84;20178;-61
2021/05/14 20:24:44;;;;;;;;;;;;;;;13.99;78.32;99434.57;2777795;84;20167;-61
2021/05/14 20:28:45;;;;;;;;;;;;;;;13.81;78.42;99438.74;2777159;84;20167;-60
2021/05/14 20:32:46;;;;;;;;;;;;;;;13.58;78.75;99438.08;2777330;84;20202;-61
2021/05/14 20:36:54;;;;;;;;;;;;;;;13.43;79.09;99433.38;2776616;84;20159;-61
2021/05/14 20:40:51;;;;;;;;;;;;;;;13.33;79.32;99438.52;2776588;84;20174;-61
2021/05/14 20:44:52;;;;;;;;;;;;;;;13.27;79.94;99452.05;2776849;84;20162;-61
2021/05/14 20:48:54;;;;;;;;;;;;;;;13.28;80.25;99449.71;2777017;84;20195;-61
2021/05/14 20:52:56;;;;;;;;;;;;;;;13.32;80.04;99448.86;2778001;85;20278;-61
2021/05/14 20:56:58;;;;;;;;;;;;;;;13.29;79.47;99446.86;2778267;84;20163;-61
2021/05/14 21:01:07;;;;;;;;;;;;;;;13.20;78.87;99450.53;2777504;85;20151;-61
2021/05/14 21:05:10;;;;;;;;;;;;;;;13.16;78.84;99449.16;2777607;84;20522;-61
2021/05/14 21:09:15;;;;;;;;;;;;;;;13.10;78.66;99452.00;2769158;84;20182;-61
2021/05/14 21:13:16;;;;;;;;;;;;;;;13.07;78.78;99450.16;2779549;85;20142;-61
2021/05/14 21:17:18;;;;;;;;;;;;;;;13.00;78.57;99449.47;2791860;83;20206;-61
2021/05/14 21:21:19;;;;;;;;;;;;;;;12.95;78.44;99450.95;2808706;83;20229;-61
2021/05/14 21:25:21;;;;;;;;;;;;;;;12.85;78.65;99451.09;2806729;83;20178;-61
2021/05/14 21:29:23;;;;;;;;;;;;;;;12.81;78.96;99447.08;2793661;83;20194;-60
2021/05/14 21:37:49;;;;;;;;;;;;;;;12.74;78.52;99456.22;2812821;84;20168;-61
2021/05/14 21:41:52;;;;;;;;;;;;;;;12.55;79.15;99455.95;2812671;84;20193;-61